createdAt,value
2022-09-28T00:01:20.281Z,99504.19
2022-09-28T00:03:47.305Z,99507.59
2022-09-28T00:06:14.749Z,99500.44
2022-09-28T00:08:41.094Z,99508.00
2022-09-28T00:11:08.317Z,99497.44
2022-09-28T00:13:35.241Z,99497.22
2022-09-28T00:16:01.790Z,99488.81
2022-09-28T00:18:28.508Z,99496.75
2022-09-28T00:21:05.694Z,99483.34
2022-09-28T00:23:33.105Z,99488.56
2022-09-28T00:26:03.513Z,99494.66
2022-09-28T00:28:31.349Z,99497.59
2022-09-28T00:30:58.200Z,99494.50
2022-09-28T00:33:24.777Z,99493.03
2022-09-28T00:36:00.282Z,99496.84
2022-09-28T00:38:27.848Z,99494.69
2022-09-28T00:40:55.993Z,99490.31
2022-09-28T00:43:23.645Z,99496.22
2022-09-28T00:45:54.604Z,99485.97
2022-09-28T00:48:21.112Z,99482.66
2022-09-28T00:50:47.631Z,99482.41
2022-09-28T00:53:23.669Z,99492.28
2022-09-28T00:56:01.698Z,99482.56
2022-09-28T00:58:29.879Z,99488.50
2022-09-28T01:00:58.096Z,99482.22
2022-09-28T01:03:25.335Z,99479.25
2022-09-28T01:05:52.820Z,99479.84
2022-09-28T01:08:21.133Z,99486.16
2022-09-28T01:10:48.705Z,99475.84
2022-09-28T01:13:16.218Z,99484.84
2022-09-28T01:16:09.447Z,99486.53
2022-09-28T01:18:42.271Z,99487.38
2022-09-28T01:21:14.596Z,99488.66
2022-09-28T01:23:53.288Z,99488.03
2022-09-28T01:26:33.253Z,99485.53
2022-09-28T01:29:04.600Z,99489.34
2022-09-28T01:31:32.243Z,99485.78
2022-09-28T01:34:00.968Z,99482.41
2022-09-28T01:36:37.527Z,99474.25
2022-09-28T01:39:13.402Z,99481.16
2022-09-28T01:41:41.132Z,99471.06
2022-09-28T01:44:10.431Z,99476.75
2022-09-28T01:46:38.487Z,99479.50
2022-09-28T01:49:14.845Z,99475.69
2022-09-28T01:51:44.755Z,99464.78
2022-09-28T01:54:16.547Z,99469.41
2022-09-28T01:56:46.129Z,99466.44
2022-09-28T01:59:15.629Z,99473.78
2022-09-28T02:02:02.332Z,99462.88
2022-09-28T02:04:31.482Z,99463.72
2022-09-28T02:07:02.451Z,99467.72
2022-09-28T02:09:35.535Z,99468.19
2022-09-28T02:12:05.873Z,99465.91
2022-09-28T02:14:34.865Z,99469.22
2022-09-28T02:17:02.029Z,99470.09
2022-09-28T02:19:29.906Z,99465.66
2022-09-28T02:21:57.783Z,99467.56
2022-09-28T02:24:36.199Z,99470.09
2022-09-28T02:27:06.754Z,99465.00
2022-09-28T02:29:33.213Z,99462.50
2022-09-28T02:32:00.083Z,99463.78
2022-09-28T02:34:26.428Z,99464.25
2022-09-28T02:36:53.004Z,99461.28
2022-09-28T02:39:19.394Z,99457.50
2022-09-28T02:41:51.734Z,99459.38
2022-09-28T02:44:21.163Z,99470.28
2022-09-28T02:47:13.871Z,99458.13
2022-09-28T02:49:49.799Z,99459.53
2022-09-28T02:52:47.009Z,99458.25
2022-09-28T02:55:16.449Z,99453.63
2022-09-28T02:58:01.588Z,99454.47
2022-09-28T03:00:29.831Z,99453.19
2022-09-28T03:03:04.165Z,99454.25
2022-09-28T03:05:33.353Z,99455.78
2022-09-28T03:08:01.049Z,99450.38
2022-09-28T03:10:46.126Z,99447.06
2022-09-28T03:13:13.587Z,99453.34
2022-09-28T03:15:45.165Z,99444.91
2022-09-28T03:18:14.351Z,99442.56
2022-09-28T03:20:40.710Z,99436.06
2022-09-28T03:23:23.926Z,99439.41
2022-09-28T03:25:51.337Z,99436.69
2022-09-28T03:28:17.701Z,99434.78
2022-09-28T03:30:44.053Z,99439.63
2022-09-28T03:33:10.445Z,99436.44
2022-09-28T03:35:36.850Z,99434.78
2022-09-28T03:38:03.231Z,99431.81
2022-09-28T03:40:29.776Z,99433.94
2022-09-28T03:42:56.143Z,99434.16
2022-09-28T03:45:22.522Z,99434.97
2022-09-28T03:47:49.118Z,99425.16
2022-09-28T03:50:15.795Z,99416.75
2022-09-28T03:52:42.293Z,99415.44
2022-09-28T03:55:09.270Z,99409.16
2022-09-28T03:57:35.608Z,99415.69
2022-09-28T04:00:02.220Z,99414.84
2022-09-28T04:02:28.780Z,99414.63
2022-09-28T04:04:55.138Z,99417.09
2022-09-28T04:07:21.550Z,99411.88
2022-09-28T04:09:47.927Z,99416.91
2022-09-28T04:12:14.295Z,99416.91
2022-09-28T04:14:40.650Z,99407.88
2022-09-28T04:17:07.234Z,99415.44
2022-09-28T04:19:33.752Z,99407.25
2022-09-28T04:22:01.459Z,99407.72
2022-09-28T04:24:28.063Z,99402.72
2022-09-28T04:27:14.414Z,99410.91
2022-09-28T04:29:43.918Z,99405.66
2022-09-28T04:32:10.933Z,99406.50
2022-09-28T04:34:39.664Z,99398.78
2022-09-28T04:37:09.717Z,99400.06
2022-09-28T04:39:36.095Z,99406.59
2022-09-28T04:42:02.432Z,99404.69
2022-09-28T04:44:28.781Z,99400.91
2022-09-28T04:46:55.583Z,99397.09
2022-09-28T04:49:21.938Z,99396.66
2022-09-28T04:51:48.283Z,99390.50
2022-09-28T04:54:14.614Z,99393.63
2022-09-28T04:56:41.795Z,99386.75
2022-09-28T04:59:08.148Z,99387.56
2022-09-28T05:01:34.738Z,99389.25
2022-09-28T05:04:01.282Z,99394.69
2022-09-28T05:06:30.488Z,99385.69
2022-09-28T05:08:57.574Z,99385.69
2022-09-28T05:11:24.190Z,99391.97
2022-09-28T05:13:50.654Z,99387.56
2022-09-28T05:16:17.458Z,99388.63
2022-09-28T05:18:43.859Z,99398.69
2022-09-28T05:21:14.411Z,99396.22
2022-09-28T05:23:41.431Z,99404.38
2022-09-28T05:26:08.199Z,99399.75
2022-09-28T05:28:34.545Z,99405.22
2022-09-28T05:31:01.676Z,99402.72
2022-09-28T05:33:28.695Z,99401.91
2022-09-28T05:35:59.060Z,99407.13
2022-09-28T05:38:27.425Z,99412.34
2022-09-28T05:40:53.879Z,99414.22
2022-09-28T05:43:20.300Z,99403.94
2022-09-28T05:45:47.359Z,99412.72
2022-09-28T05:48:15.771Z,99411.88
2022-09-28T05:50:42.145Z,99417.34
2022-09-28T05:53:09.373Z,99414.63
2022-09-28T05:55:36.420Z,99411.06
2022-09-28T05:58:04.178Z,99408.78
2022-09-28T06:00:31.530Z,99417.78
2022-09-28T06:03:05.476Z,99421.81
2022-09-28T06:05:36.183Z,99423.47
2022-09-28T06:08:04.355Z,99416.75
2022-09-28T06:10:31.236Z,99413.78
2022-09-28T06:12:58.318Z,99411.06
2022-09-28T06:15:26.139Z,99408.91
2022-09-28T06:17:56.419Z,99411.44
2022-09-28T06:20:22.803Z,99404.91
2022-09-28T06:22:55.368Z,99403.84
2022-09-28T06:25:22.616Z,99407.66
2022-09-28T06:27:55.661Z,99403.84
2022-09-28T06:30:22.493Z,99408.47
2022-09-28T06:32:51.813Z,99403.47
2022-09-28T06:35:18.466Z,99405.84
2022-09-28T06:37:45.151Z,99404.16
2022-09-28T06:40:11.541Z,99402.03
2022-09-28T06:42:37.924Z,99406.19
2022-09-28T06:45:04.670Z,99410.81
2022-09-28T06:47:33.371Z,99400.97
2022-09-28T06:49:59.954Z,99398.25
2022-09-28T06:52:26.320Z,99403.69
2022-09-28T06:54:52.712Z,99393.63
2022-09-28T06:57:19.190Z,99396.78
2022-09-28T06:59:45.595Z,99401.44
2022-09-28T07:02:15.510Z,99403.56
2022-09-28T07:04:45.029Z,99393.25
2022-09-28T07:07:11.820Z,99401.59
2022-09-28T07:09:42.723Z,99396.72
2022-09-28T07:12:13.405Z,99390.00
2022-09-28T07:14:47.868Z,99399.00
2022-09-28T07:17:15.209Z,99402.31
2022-09-28T07:19:41.922Z,99397.94
2022-09-28T07:22:08.321Z,99396.88
2022-09-28T07:24:34.759Z,99395.22
2022-09-28T07:27:01.942Z,99393.31
2022-09-28T07:29:28.311Z,99403.16
2022-09-28T07:31:54.760Z,99402.31
2022-09-28T07:34:23.135Z,99406.97
2022-09-28T07:36:49.620Z,99393.31
2022-09-28T07:39:16.027Z,99402.31
2022-09-28T07:41:43.086Z,99400.44
2022-09-28T07:44:09.448Z,99400.66
2022-09-28T07:46:36.921Z,99400.44
2022-09-28T07:49:09.799Z,99400.44
2022-09-28T07:51:38.733Z,99401.25
2022-09-28T07:54:06.518Z,99401.25
2022-09-28T07:56:34.847Z,99393.94
2022-09-28T07:59:01.410Z,99391.22
2022-09-28T08:01:28.072Z,99400.22
2022-09-28T08:03:56.289Z,99394.75
2022-09-28T08:06:23.274Z,99401.88
2022-09-28T08:08:50.253Z,99400.81
2022-09-28T08:11:18.765Z,99403.53
2022-09-28T08:13:46.461Z,99393.69
2022-09-28T08:16:13.343Z,99391.66
2022-09-28T08:18:39.849Z,99394.00
2022-09-28T08:21:24.929Z,99385.13
2022-09-28T08:23:51.641Z,99393.69
2022-09-28T08:26:18.153Z,99389.06
2022-09-28T08:28:45.187Z,99385.88
2022-09-28T08:31:11.767Z,99381.03
2022-09-28T08:33:38.505Z,99393.41
2022-09-28T08:36:05.185Z,99397.81
2022-09-28T08:38:32.006Z,99396.72
2022-09-28T08:41:04.651Z,99411.00
2022-09-28T08:43:31.205Z,99408.03
2022-09-28T08:45:59.286Z,99408.84
2022-09-28T08:48:49.027Z,99413.63
2022-09-28T08:51:27.304Z,99410.06
2022-09-28T08:54:05.795Z,99411.13
2022-09-28T08:56:43.774Z,99412.59
2022-09-28T08:59:14.569Z,99414.69
2022-09-28T09:01:56.406Z,99415.31
2022-09-28T09:04:24.005Z,99413.41
2022-09-28T09:07:07.831Z,99404.41
2022-09-28T09:09:46.451Z,99403.56
2022-09-28T09:12:24.195Z,99398.31
2022-09-28T09:15:09.209Z,99403.31
2022-09-28T09:17:35.618Z,99402.25
2022-09-28T09:20:14.978Z,99405.81
2022-09-28T09:23:00.726Z,99399.31
2022-09-28T09:25:47.992Z,99402.03
2022-09-28T09:28:33.131Z,99402.03
2022-09-28T09:31:02.659Z,99402.88
2022-09-28T09:33:44.548Z,99404.53
2022-09-28T09:36:10.996Z,99399.06
2022-09-28T09:38:56.188Z,99404.91
2022-09-28T09:41:28.949Z,99390.44
2022-09-28T09:44:01.416Z,99394.00
2022-09-28T09:46:27.870Z,99399.44
2022-09-28T09:49:03.355Z,99392.03
2022-09-28T09:51:32.864Z,99398.09
2022-09-28T09:54:01.932Z,99395.91
2022-09-28T09:56:40.325Z,99398.78
2022-09-28T09:59:19.020Z,99393.00
2022-09-28T10:01:46.056Z,99391.72
2022-09-28T10:04:17.779Z,99401.72
2022-09-28T10:06:44.223Z,99396.34
2022-09-28T10:09:16.931Z,99400.41
2022-09-28T10:11:45.201Z,99390.63
2022-09-28T10:14:21.367Z,99396.53
2022-09-28T10:16:49.567Z,99396.63
2022-09-28T10:19:18.241Z,99395.03
2022-09-28T10:21:46.835Z,99385.41
2022-09-28T10:24:29.511Z,99390.84
2022-09-28T10:26:56.627Z,99389.63
2022-09-28T10:29:25.024Z,99394.25
2022-09-28T10:31:54.696Z,99393.88
2022-09-28T10:34:30.817Z,99393.31
2022-09-28T10:37:06.308Z,99396.91
2022-09-28T10:39:34.446Z,99392.53
2022-09-28T10:42:04.994Z,99401.31
2022-09-28T10:44:35.738Z,99407.19
2022-09-28T10:47:04.135Z,99406.75
2022-09-28T10:49:46.570Z,99400.06
2022-09-28T10:52:32.311Z,99411.41
2022-09-28T10:54:58.892Z,99399.69
2022-09-28T10:57:43.397Z,99403.03
2022-09-28T11:00:28.993Z,99403.03
2022-09-28T11:02:55.922Z,99398.19
2022-09-28T11:05:24.700Z,99399.88
2022-09-28T11:07:52.680Z,99406.41
2022-09-28T11:10:20.727Z,99407.00
2022-09-28T11:12:47.980Z,99403.03
2022-09-28T11:15:18.548Z,99398.59
2022-09-28T11:17:45.028Z,99406.31
2022-09-28T11:20:26.077Z,99397.50
2022-09-28T11:22:54.900Z,99396.81
2022-09-28T11:25:22.231Z,99398.06
2022-09-28T11:27:51.584Z,99403.06
2022-09-28T11:30:22.068Z,99392.56
2022-09-28T11:32:48.497Z,99392.97
2022-09-28T11:35:19.901Z,99386.03
2022-09-28T11:38:06.689Z,99389.94
2022-09-28T11:40:52.095Z,99389.50
2022-09-28T11:43:24.746Z,99394.53
2022-09-28T11:46:00.498Z,99386.13
2022-09-28T11:48:36.871Z,99386.50
2022-09-28T11:51:09.051Z,99392.59
2022-09-28T11:53:51.679Z,99385.84
2022-09-28T11:56:30.806Z,99391.09
2022-09-28T11:59:04.100Z,99388.72
2022-09-28T12:01:37.049Z,99379.53
2022-09-28T12:04:24.740Z,99387.47
2022-09-28T12:06:59.084Z,99390.56
2022-09-28T12:09:31.773Z,99386.78
2022-09-28T12:12:01.637Z,99380.28
2022-09-28T12:14:29.583Z,99384.44
2022-09-28T12:17:08.032Z,99378.78
2022-09-28T12:19:38.947Z,99384.00
2022-09-28T12:22:11.992Z,99377.72
2022-09-28T12:24:42.225Z,99381.28
2022-09-28T12:27:17.703Z,99385.44
2022-09-28T12:29:53.424Z,99384.44
2022-09-28T12:32:22.682Z,99378.75
2022-09-28T12:34:49.021Z,99385.03
2022-09-28T12:37:15.474Z,99385.84
2022-09-28T12:39:57.083Z,99382.06
2022-09-28T12:42:52.916Z,99380.19
2022-09-28T12:45:53.155Z,99388.75
2022-09-28T12:48:36.200Z,99379.72
2022-09-28T12:51:09.245Z,99372.38
2022-09-28T12:53:54.596Z,99376.81
2022-09-28T12:56:41.280Z,99366.34
2022-09-28T12:59:26.115Z,99384.50
2022-09-28T13:02:10.807Z,99382.41
2022-09-28T13:04:44.345Z,99379.91
2022-09-28T13:07:29.766Z,99388.69
2022-09-28T13:10:33.142Z,99388.09
2022-09-28T13:12:59.502Z,99399.59
2022-09-28T13:15:32.090Z,99406.69
2022-09-28T13:17:58.552Z,99402.06
2022-09-28T13:20:35.784Z,99401.25
2022-09-28T13:23:08.976Z,99405.88
2022-09-28T13:25:36.871Z,99412.16
2022-09-28T13:28:05.056Z,99411.13
2022-09-28T13:30:38.446Z,99416.78
2022-09-28T13:33:05.987Z,99412.97
2022-09-28T13:35:33.324Z,99420.94
2022-09-28T13:38:20.782Z,99420.94
2022-09-28T13:41:06.099Z,99416.34
2022-09-28T13:43:52.892Z,99414.44
2022-09-28T13:46:25.270Z,99416.56
2022-09-28T13:49:03.394Z,99421.78
2022-09-28T13:51:39.331Z,99429.13
2022-09-28T13:54:15.731Z,99426.59
2022-09-28T13:57:01.479Z,99422.03
2022-09-28T13:59:29.750Z,99418.91
2022-09-28T14:02:09.949Z,99428.75
2022-09-28T14:04:53.842Z,99429.81
2022-09-28T14:07:21.630Z,99432.28
2022-09-28T14:10:07.362Z,99438.56
2022-09-28T14:12:33.704Z,99443.81
2022-09-28T14:15:00.489Z,99442.97
2022-09-28T14:17:31.171Z,99457.47
2022-09-28T14:20:02.144Z,99450.94
2022-09-28T14:22:47.313Z,99454.50
2022-09-28T14:25:17.168Z,99457.22
2022-09-28T14:28:02.474Z,99459.72
2022-09-28T14:30:38.061Z,99463.50
2022-09-28T14:33:16.077Z,99464.34
2022-09-28T14:35:49.493Z,99467.69
2022-09-28T14:38:39.418Z,99469.34
2022-09-28T14:41:10.654Z,99477.75
2022-09-28T14:43:45.881Z,99478.59
2022-09-28T14:46:13.160Z,99473.72
2022-09-28T14:48:50.333Z,99480.00
2022-09-28T14:51:44.056Z,99478.34
2022-09-28T14:54:13.488Z,99476.47
2022-09-28T14:56:46.027Z,99478.94
2022-09-28T14:59:25.220Z,99478.94
2022-09-28T15:01:51.631Z,99478.13
2022-09-28T15:04:19.155Z,99492.38
2022-09-28T15:06:46.560Z,99483.38
2022-09-28T15:09:32.546Z,99483.38
2022-09-28T15:12:02.346Z,99485.25
2022-09-28T15:14:31.878Z,99484.41
2022-09-28T15:17:08.553Z,99483.38
2022-09-28T15:19:50.287Z,99488.00
2022-09-28T15:22:17.130Z,99489.84
2022-09-28T15:25:03.076Z,99489.84
2022-09-28T15:27:39.142Z,99493.44
2022-09-28T15:30:14.900Z,99489.84
2022-09-28T15:32:41.407Z,99488.81
2022-09-28T15:35:20.702Z,99492.59
2022-09-28T15:37:52.825Z,99498.91
2022-09-28T15:40:25.460Z,99497.00
2022-09-28T15:42:54.783Z,99493.44
2022-09-28T15:45:26.729Z,99494.47
2022-09-28T15:47:58.465Z,99492.59
2022-09-28T15:50:25.184Z,99495.53
2022-09-28T15:53:02.046Z,99497.19
2022-09-28T15:55:44.514Z,99496.38
2022-09-28T15:58:18.260Z,99495.78
2022-09-28T16:00:46.368Z,99499.34
2022-09-28T16:03:23.398Z,99493.88
2022-09-28T16:05:58.983Z,99500.16
2022-09-28T16:08:40.049Z,99500.16
2022-09-28T16:11:18.789Z,99498.50
2022-09-28T16:13:48.727Z,99502.88
2022-09-28T16:16:16.442Z,99503.97
2022-09-28T16:18:48.127Z,99512.13
2022-09-28T16:21:26.822Z,99510.25
2022-09-28T16:23:58.181Z,99517.59
2022-09-28T16:26:33.244Z,99520.31
2022-09-28T16:29:00.093Z,99521.97
2022-09-28T16:31:28.651Z,99518.41
2022-09-28T16:34:01.265Z,99523.88
2022-09-28T16:36:29.954Z,99529.09
2022-09-28T16:38:56.349Z,99532.88
2022-09-28T16:41:24.679Z,99523.63
2022-09-28T16:43:55.053Z,99524.47
2022-09-28T16:46:23.754Z,99522.81
2022-09-28T16:48:50.385Z,99521.75
2022-09-28T16:51:17.647Z,99524.47
2022-09-28T16:54:03.311Z,99529.91
2022-09-28T16:56:30.393Z,99530.97
2022-09-28T16:58:57.041Z,99541.06
2022-09-28T17:01:24.234Z,99534.34
2022-09-28T17:03:51.123Z,99538.94
2022-09-28T17:06:19.093Z,99538.94
2022-09-28T17:08:45.649Z,99533.47
2022-09-28T17:11:20.513Z,99539.78
2022-09-28T17:13:50.147Z,99546.06
2022-09-28T17:16:18.382Z,99547.97
2022-09-28T17:18:45.910Z,99550.69
2022-09-28T17:21:14.590Z,99545.25
2022-09-28T17:23:41.471Z,99551.53
2022-09-28T17:26:08.090Z,99551.53
2022-09-28T17:28:35.726Z,99551.53
2022-09-28T17:31:03.168Z,99560.53
2022-09-28T17:33:29.788Z,99556.97
2022-09-28T17:36:01.336Z,99548.81
2022-09-28T17:38:28.935Z,99560.75
2022-09-28T17:40:55.464Z,99566.19
2022-09-28T17:43:22.426Z,99562.44
2022-09-28T17:45:49.095Z,99567.88
2022-09-28T17:48:17.360Z,99561.59
2022-09-28T17:50:46.605Z,99561.38
2022-09-28T17:53:13.743Z,99562.44
2022-09-28T17:55:40.652Z,99570.38
2022-09-28T17:58:17.913Z,99563.25
2022-09-28T18:00:45.479Z,99568.72
2022-09-28T18:03:13.815Z,99573.34
2022-09-28T18:05:40.319Z,99575.00
2022-09-28T18:08:06.830Z,99574.16
2022-09-28T18:10:33.858Z,99574.16
2022-09-28T18:13:00.388Z,99580.69
2022-09-28T18:15:27.861Z,99573.34
2022-09-28T18:17:54.401Z,99585.06
2022-09-28T18:20:20.855Z,99586.13
2022-09-28T18:22:49.141Z,99586.13
2022-09-28T18:25:15.592Z,99590.72
2022-09-28T18:27:42.103Z,99593.47
2022-09-28T18:30:08.892Z,99591.59
2022-09-28T18:32:36.909Z,99600.81
2022-09-28T18:35:07.584Z,99612.53
2022-09-28T18:37:38.335Z,99611.72
2022-09-28T18:40:05.275Z,99603.53
2022-09-28T18:42:32.204Z,99606.50
2022-09-28T18:44:58.659Z,99611.94
2022-09-28T18:47:25.546Z,99606.50
2022-09-28T18:49:51.917Z,99604.00
2022-09-28T18:52:18.270Z,99611.09
2022-09-28T18:54:46.629Z,99606.72
2022-09-28T18:57:13.042Z,99613.00
2022-09-28T18:59:39.437Z,99615.72
2022-09-28T19:02:06.017Z,99622.25
2022-09-28T19:04:32.634Z,99626.63
2022-09-28T19:06:59.025Z,99623.28
2022-09-28T19:09:26.434Z,99629.56
2022-09-28T19:11:52.836Z,99626.00
2022-09-28T19:14:19.355Z,99631.47
2022-09-28T19:16:46.255Z,99633.34
2022-09-28T19:19:13.756Z,99641.53
2022-09-28T19:21:40.511Z,99624.34
2022-09-28T19:24:06.967Z,99644.25
2022-09-28T19:26:33.450Z,99639.03
2022-09-28T19:28:59.932Z,99646.16
2022-09-28T19:31:27.073Z,99649.72
2022-09-28T19:33:53.763Z,99639.88
2022-09-28T19:36:23.554Z,99646.97
2022-09-28T19:38:50.400Z,99645.09
2022-09-28T19:41:39.347Z,99654.56
2022-09-28T19:44:37.330Z,99655.41
2022-09-28T19:47:07.300Z,99653.72
2022-09-28T19:49:37.755Z,99655.59
2022-09-28T19:52:20.788Z,99654.75
2022-09-28T19:54:57.459Z,99663.56
2022-09-28T19:57:25.956Z,99651.00
2022-09-28T19:59:54.362Z,99659.19
2022-09-28T20:02:23.149Z,99655.59
2022-09-28T20:04:49.751Z,99661.03
2022-09-28T20:07:16.181Z,99668.38
2022-09-28T20:09:42.589Z,99667.56
2022-09-28T20:12:09.285Z,99663.16
2022-09-28T20:14:38.301Z,99667.56
2022-09-28T20:17:07.162Z,99661.28
2022-09-28T20:19:33.672Z,99665.88
2022-09-28T20:22:02.679Z,99667.78
2022-09-28T20:24:29.345Z,99664.00
2022-09-28T20:26:55.903Z,99672.41
2022-09-28T20:29:24.241Z,99674.06
2022-09-28T20:31:51.758Z,99672.19
2022-09-28T20:34:18.219Z,99674.91
2022-09-28T20:36:44.726Z,99677.63
2022-09-28T20:39:11.412Z,99675.97
2022-09-28T20:41:37.868Z,99676.78
2022-09-28T20:44:06.116Z,99683.09
2022-09-28T20:46:33.350Z,99675.72
2022-09-28T20:48:59.912Z,99682.25
2022-09-28T20:51:26.568Z,99689.38
2022-09-28T20:53:54.602Z,99684.75
2022-09-28T20:56:22.209Z,99681.19
2022-09-28T20:58:50.693Z,99684.75
2022-09-28T21:01:19.051Z,99691.25
2022-09-28T21:03:49.632Z,99696.72
2022-09-28T21:06:17.092Z,99694.81
2022-09-28T21:08:44.340Z,99690.00
2022-09-28T21:11:14.336Z,99702.41
2022-09-28T21:13:42.793Z,99702.19
2022-09-28T21:16:16.463Z,99708.94
2022-09-28T21:18:42.939Z,99714.16
2022-09-28T21:21:11.500Z,99719.59
2022-09-28T21:23:37.996Z,99718.75
2022-09-28T21:26:06.025Z,99718.53
2022-09-28T21:28:32.658Z,99721.06
2022-09-28T21:30:59.421Z,99718.13
2022-09-28T21:33:27.128Z,99727.34
2022-09-28T21:35:53.778Z,99721.88
2022-09-28T21:38:20.170Z,99722.72
2022-09-28T21:40:46.682Z,99735.47
2022-09-28T21:43:13.108Z,99733.13
2022-09-28T21:45:39.727Z,99733.97
2022-09-28T21:48:06.076Z,99734.63
2022-09-28T21:50:32.577Z,99741.34
2022-09-28T21:52:59.245Z,99747.03
2022-09-28T21:55:25.612Z,99749.16
2022-09-28T21:57:51.994Z,99756.88
2022-09-28T22:00:19.771Z,99745.53
2022-09-28T22:02:46.364Z,99751.81
2022-09-28T22:05:13.074Z,99753.88
2022-09-28T22:07:40.121Z,99750.31
2022-09-28T22:10:07.442Z,99762.06
2022-09-28T22:12:33.928Z,99750.91
2022-09-28T22:15:00.385Z,99753.44
2022-09-28T22:17:26.750Z,99752.56
2022-09-28T22:19:53.266Z,99754.69
2022-09-28T22:22:19.625Z,99752.41
2022-09-28T22:24:45.953Z,99751.81
2022-09-28T22:27:12.451Z,99752.41
2022-09-28T22:29:38.818Z,99757.84
2022-09-28T22:32:05.551Z,99755.97
2022-09-28T22:34:32.155Z,99764.38
2022-09-28T22:36:58.910Z,99762.31
2022-09-28T22:39:25.528Z,99765.03
2022-09-28T22:41:52.558Z,99760.63
2022-09-28T22:44:19.785Z,99767.13
2022-09-28T22:46:46.764Z,99759.16
2022-09-28T22:49:13.592Z,99764.63
2022-09-28T22:51:40.291Z,99773.84
2022-09-28T22:54:07.200Z,99760.03
2022-09-28T22:56:33.566Z,99763.38
2022-09-28T22:59:00.091Z,99761.72
2022-09-28T23:01:28.049Z,99767.16
2022-09-28T23:03:55.461Z,99768.81
2022-09-28T23:06:23.303Z,99769.66
2022-09-28T23:08:50.953Z,99767.78
2022-09-28T23:11:17.850Z,99768.22
2022-09-28T23:13:48.562Z,99774.50
2022-09-28T23:16:15.155Z,99770.72
2022-09-28T23:18:41.767Z,99773.44
2022-09-28T23:21:12.809Z,99778.25
2022-09-28T23:23:39.180Z,99767.13
2022-09-28T23:26:16.321Z,99768.81
2022-09-28T23:28:43.270Z,99770.91
2022-09-28T23:31:15.391Z,99762.94
2022-09-28T23:33:41.954Z,99775.34
2022-09-28T23:36:08.523Z,99771.16
2022-09-28T23:38:34.908Z,99767.81
2022-09-28T23:41:01.540Z,99765.91
2022-09-28T23:43:27.977Z,99773.44
2022-09-28T23:45:54.436Z,99772.38
2022-09-28T23:48:20.800Z,99771.56
2022-09-28T23:50:47.270Z,99778.06
2022-09-28T23:53:14.402Z,99781.19
2022-09-28T23:55:42.219Z,99777.66
2022-09-28T23:58:08.856Z,99774.06
